Time;durP1;ratioP1;P1;durP2;ratioP2;P2;SDS_P1;SDS_P2;PMS_P1;PMS_P2;Temp;Humidity;BMP_temperature;BMP_pressure;BME280_temperature;BME280_humidity;BME280_pressure;Samples;Min_cycle;Max_cycle;Signal;HPM_P1;HPM_P2
2022/01/26 04:57:45;;;;;;;29.35;15.90;;;0.70;99.90;;;;;;5298311;23;20074;-90
2022/01/26 05:00:13;;;;;;;26.83;14.95;;;0.70;99.90;;;;;;4920428;29;20528;-92
2022/01/26 05:02:40;;;;;;;30.40;16.42;;;0.70;99.90;;;;;;4925789;29;20469;-92
2022/01/26 05:05:08;;;;;;;32.25;16.08;;;0.70;99.90;;;;;;4923063;29;20080;-92
2022/01/26 05:07:36;;;;;;;33.47;17.17;;;0.70;99.90;;;;;;4921260;29;20044;-91
2022/01/26 05:10:05;;;;;;;32.72;15.52;;;0.70;99.90;;;;;;4903875;29;20241;-92
2022/01/26 05:12:36;;;;;;;30.65;16.17;;;0.60;99.90;;;;;;4909819;29;20074;-93
2022/01/26 05:15:10;;;;;;;32.55;15.38;;;0.70;99.90;;;;;;4924355;29;20095;-94
2022/01/26 05:17:38;;;;;;;31.63;15.87;;;0.60;99.90;;;;;;4931122;29;20103;-83
2022/01/26 05:20:08;;;;;;;32.38;16.27;;;0.60;99.90;;;;;;4904515;29;20363;-83
2022/01/26 05:22:36;;;;;;;31.48;15.13;;;0.70;99.90;;;;;;4928809;29;20520;-82
2022/01/26 05:25:04;;;;;;;31.38;16.42;;;0.70;99.90;;;;;;4927015;29;20481;-81
2022/01/26 05:27:32;;;;;;;29.83;15.85;;;0.70;99.90;;;;;;4934466;29;20142;-90
2022/01/26 05:29:59;;;;;;;33.75;16.17;;;0.70;99.90;;;;;;4920526;29;20048;-88
2022/01/26 05:32:28;;;;;;;32.75;15.85;;;0.70;99.90;;;;;;4921769;29;20055;-84
2022/01/26 05:34:55;;;;;;;29.60;16.20;;;0.70;99.90;;;;;;4921290;29;20051;-87
2022/01/26 05:37:22;;;;;;;33.83;15.93;;;0.80;99.90;;;;;;4921393;29;20083;-87
2022/01/26 05:39:49;;;;;;;36.42;16.45;;;0.80;99.90;;;;;;4930787;29;20070;-90
2022/01/26 05:42:17;;;;;;;33.10;17.15;;;0.80;99.90;;;;;;4929551;29;20079;-90
2022/01/26 05:44:44;;;;;;;36.33;17.02;;;0.80;99.90;;;;;;4929308;29;20052;-90
2022/01/26 05:47:16;;;;;;;35.60;17.05;;;0.80;99.90;;;;;;4934262;29;20462;-92
2022/01/26 05:49:45;;;;;;;35.53;16.85;;;0.80;99.90;;;;;;4934718;29;20084;-91
2022/01/26 05:52:12;;;;;;;36.50;17.52;;;0.80;99.90;;;;;;4933008;29;20048;-91
2022/01/26 05:54:40;;;;;;;36.17;16.20;;;0.80;99.90;;;;;;4933862;29;20055;-91
2022/01/26 05:57:07;;;;;;;36.42;16.05;;;0.80;99.90;;;;;;4929571;29;20087;-91
2022/01/26 05:59:35;;;;;;;37.30;16.35;;;0.80;99.90;;;;;;4921259;29;20063;-92
2022/01/26 06:02:02;;;;;;;34.33;16.45;;;0.80;99.90;;;;;;4921657;29;20502;-91
2022/01/26 06:04:29;;;;;;;38.97;17.88;;;0.80;99.90;;;;;;4920582;29;20143;-92
2022/01/26 06:06:58;;;;;;;39.15;16.90;;;0.90;99.90;;;;;;4921484;29;20066;-92
2022/01/26 06:09:25;;;;;;;34.97;15.50;;;0.90;99.90;;;;;;4921507;29;20080;-92
2022/01/26 06:11:52;;;;;;;38.60;17.30;;;0.90;99.90;;;;;;4920296;29;20131;-91
2022/01/26 06:14:20;;;;;;;40.42;17.52;;;0.90;99.90;;;;;;4920220;29;20068;-91
2022/01/26 06:16:47;;;;;;;37.70;16.58;;;1.00;99.90;;;;;;4919761;29;20459;-92
2022/01/26 06:19:14;;;;;;;37.78;16.42;;;1.00;99.90;;;;;;4919248;29;20157;-92
2022/01/26 06:21:41;;;;;;;46.60;18.10;;;1.00;99.90;;;;;;4902366;29;20135;-93
2022/01/26 06:24:10;;;;;;;36.42;16.67;;;1.00;99.90;;;;;;4919327;29;20473;-91
2022/01/26 06:26:40;;;;;;;36.60;16.40;;;1.00;99.90;;;;;;4919396;29;20048;-92
2022/01/26 06:29:07;;;;;;;36.28;15.60;;;0.90;99.90;;;;;;4919378;29;20064;-91
2022/01/26 06:31:38;;;;;;;37.15;15.15;;;0.90;99.90;;;;;;4918903;29;20052;-92
2022/01/26 06:34:05;;;;;;;36.08;15.82;;;0.90;99.90;;;;;;4903179;29;20059;-92
2022/01/26 06:36:33;;;;;;;39.42;16.48;;;0.80;99.90;;;;;;4919101;29;20417;-92
2022/01/26 06:39:00;;;;;;;34.95;15.30;;;0.80;99.90;;;;;;4902829;29;20138;-92
2022/01/26 06:41:29;;;;;;;36.53;16.20;;;0.80;99.90;;;;;;4919606;29;20139;-92
2022/01/26 06:44:03;;;;;;;38.28;16.60;;;0.80;99.90;;;;;;4919346;29;20139;-93
2022/01/26 06:46:39;;;;;;;38.73;16.13;;;0.80;99.90;;;;;;4919791;29;20383;-93
2022/01/26 06:51:52;;;;;;;37.67;15.75;;;0.90;99.90;;;;;;4905710;29;20137;-93
2022/01/26 06:54:19;;;;;;;37.40;15.75;;;0.90;99.90;;;;;;4919649;29;20090;-91
2022/01/26 06:56:48;;;;;;;34.95;15.05;;;1.00;99.90;;;;;;4910238;29;20087;-92
2022/01/26 06:59:16;;;;;;;26.70;12.95;;;0.90;99.90;;;;;;4926002;29;20054;-92
2022/01/26 07:01:43;;;;;;;34.13;14.63;;;0.80;99.90;;;;;;4926534;29;20080;-92
2022/01/26 07:04:10;;;;;;;32.20;15.20;;;0.80;99.90;;;;;;4878884;29;20048;-93
2022/01/26 07:06:37;;;;;;;31.40;14.60;;;0.70;99.90;;;;;;4923227;29;20134;-93
2022/01/26 07:09:05;;;;;;;30.33;14.82;;;0.70;99.90;;;;;;4925765;29;20076;-92
2022/01/26 07:11:32;;;;;;;34.47;14.63;;;0.70;99.90;;;;;;4921926;29;20079;-92
2022/01/26 07:14:03;;;;;;;32.65;15.30;;;0.60;99.90;;;;;;4925707;29;20513;-92
2022/01/26 07:22:00;;;;;;;32.35;14.25;;;0.50;99.90;;;;;;4915038;29;20128;-92
2022/01/26 07:24:27;;;;;;;33.30;16.05;;;0.50;99.90;;;;;;4909973;29;20127;-91
2022/01/26 07:26:54;;;;;;;36.00;14.75;;;0.50;99.90;;;;;;4906064;29;20053;-92
2022/01/26 07:29:24;;;;;;;30.48;14.02;;;0.40;99.90;;;;;;4923223;29;20502;-91
2022/01/26 07:31:52;;;;;;;35.35;14.52;;;0.40;99.90;;;;;;4907648;29;20108;-92
2022/01/26 07:34:22;;;;;;;32.53;14.77;;;0.40;99.90;;;;;;4922805;29;20056;-93
2022/01/26 07:36:52;;;;;;;32.58;14.02;;;0.50;99.90;;;;;;4922853;29;20111;-90
2022/01/26 07:39:30;;;;;;;29.48;13.80;;;0.50;99.90;;;;;;4922879;29;20064;-91
2022/01/26 07:41:59;;;;;;;32.53;14.40;;;0.60;99.90;;;;;;4905767;29;20063;-92
2022/01/26 07:44:28;;;;;;;38.92;16.38;;;0.60;99.90;;;;;;4905832;29;20052;-92
2022/01/26 07:46:55;;;;;;;35.85;15.85;;;0.60;99.90;;;;;;4921994;29;20079;-92
2022/01/26 07:49:23;;;;;;;36.92;15.27;;;0.60;99.90;;;;;;4905056;29;20048;-92
2022/01/26 07:51:51;;;;;;;32.67;15.18;;;0.60;99.90;;;;;;4922450;29;20083;-93
2022/01/26 07:54:21;;;;;;;29.50;14.15;;;0.50;99.90;;;;;;4899440;29;20084;-91
2022/01/26 07:56:48;;;;;;;32.40;14.50;;;0.50;99.90;;;;;;4941346;29;20418;-92
2022/01/26 07:59:16;;;;;;;32.65;14.57;;;0.50;99.90;;;;;;4941051;29;20048;-91
2022/01/26 08:01:45;;;;;;;31.25;14.63;;;0.50;99.90;;;;;;4933964;29;20493;-92
2022/01/26 08:04:12;;;;;;;32.28;14.30;;;0.50;99.90;;;;;;4924082;29;20044;-91
2022/01/26 08:06:40;;;;;;;33.25;14.82;;;0.60;99.90;;;;;;4939258;29;20054;-92
2022/01/26 08:09:07;;;;;;;28.77;13.77;;;0.60;99.90;;;;;;4905833;29;20158;-92
2022/01/26 08:11:35;;;;;;;33.25;14.95;;;0.70;99.90;;;;;;4890342;29;20063;-91
2022/01/26 08:14:02;;;;;;;33.85;15.20;;;0.70;99.90;;;;;;4923991;29;20112;-91
2022/01/26 08:16:29;;;;;;;34.50;15.55;;;0.80;99.90;;;;;;4922162;29;20083;-92
2022/01/26 08:18:58;;;;;;;38.75;17.10;;;0.80;99.90;;;;;;4904660;29;20044;-91
2022/01/26 08:21:25;;;;;;;41.55;17.45;;;0.80;99.90;;;;;;4921752;29;20139;-91
2022/01/26 08:23:52;;;;;;;38.92;16.27;;;0.80;99.90;;;;;;4921783;29;20124;-91
2022/01/26 08:26:26;;;;;;;37.97;16.33;;;0.80;99.90;;;;;;4919479;29;20052;-91
2022/01/26 08:28:56;;;;;;;40.65;17.83;;;0.80;99.90;;;;;;4928724;29;20056;-92
2022/01/26 08:31:25;;;;;;;38.78;18.08;;;0.80;99.90;;;;;;4922848;29;20112;-91
2022/01/26 08:33:52;;;;;;;36.38;16.75;;;0.70;99.90;;;;;;4921124;29;20486;-92
2022/01/26 08:36:21;;;;;;;37.42;16.42;;;0.70;99.90;;;;;;4904359;29;20135;-92
2022/01/26 08:38:48;;;;;;;35.65;17.02;;;0.60;99.90;;;;;;4921211;29;20071;-92
2022/01/26 08:41:15;;;;;;;35.08;16.98;;;0.60;99.90;;;;;;4921165;29;20127;-92
2022/01/26 08:43:42;;;;;;;39.45;17.45;;;0.50;99.90;;;;;;4921004;29;20112;-92
2022/01/26 08:46:10;;;;;;;39.70;18.25;;;0.50;99.90;;;;;;4921434;29;20444;-92
2022/01/26 08:48:37;;;;;;;38.55;17.88;;;0.50;99.90;;;;;;4922573;29;20135;-92
2022/01/26 08:51:04;;;;;;;36.78;17.75;;;0.50;99.90;;;;;;4921526;29;20138;-93
2022/01/26 08:53:32;;;;;;;40.70;18.70;;;0.40;99.90;;;;;;4921498;29;20877;-92
2022/01/26 08:56:00;;;;;;;41.15;18.90;;;0.40;99.90;;;;;;4920961;29;20541;-92
2022/01/26 08:58:27;;;;;;;42.05;17.90;;;0.40;99.90;;;;;;4919748;29;20079;-91
2022/01/26 09:00:55;;;;;;;42.65;18.13;;;0.40;99.90;;;;;;4903775;29;20127;-92
2022/01/26 09:03:24;;;;;;;37.70;17.58;;;0.40;99.90;;;;;;4919447;29;20382;-93
2022/01/26 09:05:51;;;;;;;38.50;16.77;;;0.40;99.90;;;;;;4920475;29;20108;-91
2022/01/26 09:08:20;;;;;;;36.50;16.95;;;0.40;99.90;;;;;;4921295;29;20143;-91
2022/01/26 09:10:56;;;;;;;37.78;16.75;;;0.50;99.90;;;;;;4921282;29;20056;-92
2022/01/26 09:13:24;;;;;;;38.33;16.48;;;0.60;99.90;;;;;;4920581;29;20399;-91
2022/01/26 09:15:52;;;;;;;36.53;16.70;;;0.60;99.90;;;;;;4920189;29;20108;-91
2022/01/26 09:18:30;;;;;;;36.20;17.27;;;0.70;99.90;;;;;;4904328;29;20391;-93
2022/01/26 09:20:58;;;;;;;34.67;16.85;;;0.80;99.90;;;;;;4920931;29;20397;-92
2022/01/26 09:23:25;;;;;;;36.50;17.15;;;0.90;99.90;;;;;;4920222;29;20139;-92
2022/01/26 09:25:54;;;;;;;37.58;17.42;;;0.90;99.90;;;;;;4920195;29;20591;-92
2022/01/26 09:28:21;;;;;;;36.05;16.85;;;1.00;99.90;;;;;;4919625;29;20143;-91
2022/01/26 09:30:48;;;;;;;32.80;15.77;;;1.00;99.90;;;;;;4903489;29;20056;-92
2022/01/26 09:33:15;;;;;;;38.10;17.67;;;1.10;99.90;;;;;;4919936;29;20139;-92
2022/01/26 09:35:44;;;;;;;40.50;18.77;;;1.20;99.90;;;;;;4919708;29;20143;-92
2022/01/26 09:38:11;;;;;;;42.53;19.30;;;1.20;99.90;;;;;;4903013;29;20394;-92
2022/01/26 09:40:39;;;;;;;40.92;18.33;;;1.20;99.90;;;;;;4919068;29;20521;-92
2022/01/26 09:43:08;;;;;;;39.78;18.35;;;1.10;99.90;;;;;;4920107;29;20140;-92
2022/01/26 09:45:35;;;;;;;39.97;18.55;;;1.00;99.90;;;;;;4923852;29;20471;-92
2022/01/26 09:48:03;;;;;;;40.40;18.52;;;1.00;99.90;;;;;;4924943;29;20056;-93
2022/01/26 09:50:31;;;;;;;42.60;19.02;;;1.00;99.90;;;;;;4920165;29;20133;-91
2022/01/26 09:52:59;;;;;;;38.88;17.65;;;1.00;99.90;;;;;;4921302;29;20088;-91
2022/01/26 09:55:27;;;;;;;38.75;17.45;;;1.10;99.90;;;;;;4920077;29;20048;-92
2022/01/26 09:57:58;;;;;;;43.08;19.10;;;1.10;99.90;;;;;;4921782;29;20055;-89
2022/01/26 10:00:27;;;;;;;44.22;20.00;;;1.20;99.90;;;;;;4930687;29;20055;-89
2022/01/26 10:02:58;;;;;;;38.00;17.08;;;1.20;99.90;;;;;;4937541;29;20134;-89
2022/01/26 10:05:25;;;;;;;47.88;19.83;;;1.30;99.90;;;;;;4906849;29;20063;-91
2022/01/26 10:08:07;;;;;;;40.83;18.05;;;1.30;99.90;;;;;;4919252;29;20589;-90
2022/01/26 10:19:20;;;;;;;45.05;20.30;;;1.50;99.90;;;;;;4917377;29;20080;-90
2022/01/26 10:21:49;;;;;;;45.70;19.90;;;1.50;99.90;;;;;;4937539;29;20142;-92
2022/01/26 10:24:18;;;;;;;46.53;19.73;;;1.50;99.90;;;;;;4902295;29;20107;-91
2022/01/26 10:26:49;;;;;;;42.00;19.17;;;1.50;99.90;;;;;;4919139;29;20052;-90
2022/01/26 10:29:17;;;;;;;42.97;18.73;;;1.50;99.90;;;;;;4925310;29;20058;-89
2022/01/26 10:31:46;;;;;;;40.08;18.40;;;1.50;99.90;;;;;;4931162;29;20108;-91
2022/01/26 10:34:15;;;;;;;42.72;20.20;;;1.60;99.90;;;;;;4921351;29;20142;-91
2022/01/26 10:36:46;;;;;;;42.55;19.42;;;1.60;99.90;;;;;;4904125;29;20110;-90
2022/01/26 10:39:20;;;;;;;41.03;18.98;;;1.60;99.90;;;;;;4919955;29;20126;-91
2022/01/26 10:41:50;;;;;;;40.60;17.92;;;1.60;99.90;;;;;;4931866;29;20048;-92
2022/01/26 10:44:18;;;;;;;41.63;19.35;;;1.70;99.90;;;;;;4928507;29;20052;-91
2022/01/26 10:46:47;;;;;;;40.55;18.27;;;1.70;99.90;;;;;;4922489;29;20134;-90
2022/01/26 10:49:29;;;;;;;44.35;20.63;;;1.70;99.90;;;;;;4921407;29;20413;-91
2022/01/26 10:52:01;;;;;;;41.35;19.88;;;1.70;99.90;;;;;;4907903;29;20409;-91
2022/01/26 10:54:37;;;;;;;36.95;18.98;;;1.70;99.90;;;;;;4921610;29;20052;-90
2022/01/26 10:57:06;;;;;;;39.40;19.52;;;1.60;99.90;;;;;;4912274;29;20064;-92
2022/01/26 10:59:35;;;;;;;44.00;22.08;;;1.40;99.90;;;;;;4904922;29;20048;-92
2022/01/26 11:02:05;;;;;;;46.65;22.20;;;1.30;99.90;;;;;;4914047;29;20075;-91
2022/01/26 11:04:34;;;;;;;43.00;21.42;;;1.20;99.90;;;;;;4901113;29;20062;-89
2022/01/26 11:07:04;;;;;;;45.95;21.88;;;1.20;99.90;;;;;;4886074;29;20052;-90
2022/01/26 11:09:34;;;;;;;50.10;22.25;;;1.10;99.90;;;;;;4903063;29;20080;-89
2022/01/26 11:12:04;;;;;;;46.65;22.25;;;1.00;99.90;;;;;;4902874;29;20131;-91
2022/01/26 11:14:41;;;;;;;45.80;22.58;;;1.00;99.90;;;;;;4917965;29;20457;-91
2022/01/26 11:17:11;;;;;;;45.28;21.05;;;0.90;99.90;;;;;;4919165;29;20075;-88
2022/01/26 11:19:44;;;;;;;48.13;22.13;;;0.90;99.90;;;;;;4905572;29;20041;-90
2022/01/26 11:22:14;;;;;;;51.50;22.63;;;0.90;99.90;;;;;;4902226;29;20069;-92
2022/01/26 11:24:49;;;;;;;52.72;23.90;;;0.90;99.90;;;;;;4908688;29;20117;-91
2022/01/26 11:27:18;;;;;;;;;;;0.90;99.90;;;;;;4902285;29;20402;-91
2022/01/26 11:29:49;;;;;;;42.00;20.45;;;0.90;99.90;;;;;;4912780;29;19986;-92
2022/01/26 11:32:24;;;;;;;38.78;20.35;;;1.00;99.90;;;;;;4917594;29;20048;-91
2022/01/26 11:34:54;;;;;;;40.95;21.13;;;1.00;99.90;;;;;;4918056;29;20048;-91
2022/01/26 11:37:36;;;;;;;40.83;19.85;;;1.10;99.90;;;;;;4918053;29;20104;-90
2022/01/26 11:45:35;;;;;;;43.20;20.42;;;1.20;99.90;;;;;;4919812;29;20055;-93
2022/01/26 11:48:08;;;;;;;40.08;20.10;;;1.20;99.90;;;;;;4924679;29;20076;-92
2022/01/26 11:50:37;;;;;;;41.72;20.88;;;1.20;99.90;;;;;;4924011;29;20115;-91
2022/01/26 11:53:06;;;;;;;39.47;18.67;;;1.20;99.90;;;;;;4920507;29;20112;-90
2022/01/26 11:55:43;;;;;;;40.88;20.15;;;1.20;99.90;;;;;;4923294;29;20581;-90
2022/01/26 11:58:16;;;;;;;39.25;19.15;;;1.20;99.90;;;;;;4935902;29;20134;-91
2022/01/26 12:00:55;;;;;;;40.00;19.42;;;1.20;99.90;;;;;;4942343;29;20134;-91
2022/01/26 12:03:29;;;;;;;39.13;19.55;;;1.30;99.90;;;;;;4930194;29;20421;-91
2022/01/26 12:05:58;;;;;;;41.75;20.30;;;1.30;99.90;;;;;;4943315;29;20462;-89
2022/01/26 12:08:31;;;;;;;43.42;21.15;;;1.40;99.90;;;;;;4944781;29;20477;-91
2022/01/26 12:10:59;;;;;;;46.53;21.35;;;1.60;99.90;;;;;;4941965;29;20090;-91
2022/01/26 12:13:29;;;;;;;41.95;20.75;;;1.60;99.90;;;;;;4924603;29;20130;-91
2022/01/26 12:16:04;;;;;;;40.55;19.85;;;1.60;99.90;;;;;;4941653;29;20048;-93
2022/01/26 12:18:37;;;;;;;42.53;19.98;;;1.60;99.90;;;;;;4925002;29;20048;-90
2022/01/26 12:35:38;;;;;;;41.40;19.83;;;1.90;99.90;;;;;;4939153;29;20485;-91
2022/01/26 12:38:14;;;;;;;56.38;25.83;;;1.90;99.90;;;;;;4939729;29;20062;-92
2022/01/26 12:43:38;;;;;;;50.35;23.70;;;1.90;99.90;;;;;;4939618;29;20054;-90
2022/01/26 12:46:08;;;;;;;48.33;21.25;;;2.00;99.90;;;;;;4925254;29;20056;-91
2022/01/26 12:48:39;;;;;;;49.17;21.55;;;2.00;99.90;;;;;;4920495;29;20140;-91
2022/01/26 12:51:09;;;;;;;44.90;21.55;;;2.00;99.90;;;;;;4920271;29;20052;-91
2022/01/26 12:53:38;;;;;;;44.80;21.38;;;2.00;99.90;;;;;;4919204;29;20049;-90
2022/01/26 12:56:07;;;;;;;42.63;20.63;;;2.00;99.90;;;;;;4920796;29;20556;-90
2022/01/26 12:58:37;;;;;;;44.88;21.98;;;2.00;99.90;;;;;;4920375;29;20091;-90
2022/01/26 13:01:07;;;;;;;46.40;21.75;;;2.00;99.90;;;;;;4920039;29;20135;-90
2022/01/26 13:03:37;;;;;;;49.58;23.27;;;2.00;99.90;;;;;;4920112;29;20112;-90
2022/01/26 13:06:22;;;;;;;41.72;19.38;;;2.00;99.90;;;;;;4920046;29;20147;-90
2022/01/26 13:08:52;;;;;;;40.38;20.05;;;2.00;99.90;;;;;;4920001;29;20104;-89
2022/01/26 13:11:28;;;;;;;39.45;18.65;;;2.00;99.90;;;;;;4919427;29;20044;-89
2022/01/26 13:14:15;;;;;;;38.75;18.88;;;2.00;99.90;;;;;;4931556;29;20118;-90
2022/01/26 13:16:56;;;;;;;35.40;18.13;;;2.00;99.90;;;;;;4926598;29;20052;-90
2022/01/26 13:22:32;;;;;;;34.38;16.08;;;2.00;99.90;;;;;;4922523;29;20056;-90
2022/01/26 13:28:06;;;;;;;38.85;17.58;;;2.00;99.90;;;;;;4912127;29;20368;-89
2022/01/26 13:30:58;;;;;;;36.30;18.08;;;2.00;99.90;;;;;;4921166;29;20494;-89
2022/01/26 13:36:30;;;;;;;35.30;17.30;;;2.00;99.90;;;;;;4919384;29;20067;-89
2022/01/26 13:39:14;;;;;;;39.40;18.38;;;2.00;99.90;;;;;;4919176;29;20052;-88
2022/01/26 13:41:50;;;;;;;34.45;15.90;;;2.00;99.90;;;;;;4919566;29;20414;-89
2022/01/26 13:50:06;;;;;;;39.77;17.93;;;2.10;99.90;;;;;;4905340;29;20087;-89
2022/01/26 13:52:42;;;;;;;40.78;18.27;;;2.00;99.90;;;;;;4926298;29;20059;-89
2022/01/26 14:00:38;;;;;;;40.53;18.13;;;2.00;99.90;;;;;;4919935;29;20052;-88
2022/01/26 14:03:07;;;;;;;42.78;18.63;;;2.00;99.90;;;;;;4918477;29;20094;-89
2022/01/26 14:05:35;;;;;;;41.20;17.85;;;2.00;99.90;;;;;;4918602;29;20108;-90
2022/01/26 14:08:02;;;;;;;38.72;17.45;;;2.00;99.90;;;;;;4919215;29;20127;-87
2022/01/26 14:10:31;;;;;;;36.47;17.23;;;2.00;99.90;;;;;;4918789;29;20083;-88
2022/01/26 14:13:00;;;;;;;38.08;18.35;;;2.00;99.90;;;;;;4917903;29;20052;-85
2022/01/26 14:15:37;;;;;;;39.58;18.20;;;2.10;99.90;;;;;;4917704;29;20044;-83
2022/01/26 14:18:11;;;;;;;37.28;18.33;;;2.20;99.90;;;;;;4917435;29;20052;-83
2022/01/26 14:23:55;;;;;;;38.35;18.85;;;2.30;99.90;;;;;;4917415;29;20048;-83
2022/01/26 14:26:29;;;;;;;41.05;18.90;;;2.40;99.90;;;;;;4918450;29;20103;-84
2022/01/26 14:28:56;;;;;;;41.00;19.00;;;2.40;99.90;;;;;;4917950;29;20052;-83
2022/01/26 14:31:32;;;;;;;38.45;18.15;;;2.40;99.90;;;;;;4916917;29;20056;-84
2022/01/26 14:35:01;;;;;;;42.25;19.67;;;2.50;99.90;;;;;;4917156;29;20051;-84
2022/01/26 14:40:34;;;;;;;39.13;19.13;;;2.50;99.90;;;;;;4917250;29;20067;-85
2022/01/26 14:51:32;;;;;;;;;;;2.50;99.90;;;;;;4917272;29;20086;-84
2022/01/26 14:54:18;;;;;;;50.20;20.13;;;2.50;99.90;;;;;;4926419;29;19923;-84
2022/01/26 15:35:41;;;;;;;36.65;14.68;;;1.70;99.90;;;;;;4916756;29;20410;-84
2022/01/26 15:41:05;;;;;;;35.60;15.57;;;1.70;99.90;;;;;;4919963;29;20062;-85
2022/01/26 15:43:54;;;;;;;36.35;15.38;;;1.70;99.90;;;;;;4920227;29;20107;-85
2022/01/26 15:57:53;;;;;;;;;;;1.70;99.90;;;;;;4926652;29;20937;-87
2022/01/26 16:06:04;;;;;;;28.70;12.93;;;1.70;99.90;;;;;;4917003;29;20107;-88
2022/01/26 16:12:38;;;;;;;27.88;12.30;;;1.60;99.90;;;;;;4921530;29;20083;-87
2022/01/26 16:17:11;;;;;;;31.02;11.80;;;1.60;99.90;;;;;;4933750;29;19997;-88
2022/01/26 16:35:08;;;;;;;28.33;12.23;;;1.60;99.90;;;;;;4932151;29;20055;-84
2022/01/26 17:24:49;;;;;;;33.33;13.20;;;1.60;99.90;;;;;;4918305;29;20486;-84
2022/01/26 17:46:57;;;;;;;32.67;13.55;;;1.70;99.90;;;;;;4923059;29;19969;-89
2022/01/26 18:17:41;;;;;;;30.23;13.63;;;1.80;99.90;;;;;;4911273;29;20060;-89
2022/01/26 18:40:02;;;;;;;33.80;14.40;;;1.70;99.90;;;;;;4919047;29;20410;-87
2022/01/26 18:50:41;;;;;;;31.13;14.32;;;1.70;99.90;;;;;;4915645;29;20059;-87
2022/01/26 18:53:11;;;;;;;30.52;14.75;;;1.70;99.90;;;;;;4933195;29;20056;-89
2022/01/26 18:55:38;;;;;;;30.90;14.35;;;1.70;99.90;;;;;;4937195;29;20501;-86
2022/01/26 18:58:07;;;;;;;29.00;13.43;;;1.70;99.90;;;;;;4927737;29;20099;-86
2022/01/26 19:00:35;;;;;;;30.92;13.00;;;1.70;99.90;;;;;;4900770;29;20454;-87
2022/01/26 19:03:02;;;;;;;34.88;15.25;;;1.70;99.90;;;;;;4917834;29;20405;-87
2022/01/26 19:05:29;;;;;;;33.20;13.95;;;1.70;99.90;;;;;;4916821;29;20070;-87
2022/01/26 19:07:57;;;;;;;31.45;14.55;;;1.70;99.90;;;;;;4917066;29;20044;-86
2022/01/26 19:10:27;;;;;;;33.35;14.23;;;1.70;99.90;;;;;;4925115;29;20056;-90
2022/01/26 19:12:54;;;;;;;33.38;14.68;;;1.80;99.90;;;;;;4917754;29;20055;-90
2022/01/26 19:15:25;;;;;;;30.80;13.40;;;1.80;99.90;;;;;;4930854;29;20087;-89
2022/01/26 19:17:54;;;;;;;33.58;14.57;;;1.80;99.90;;;;;;4934776;29;20103;-89
2022/01/26 19:20:41;;;;;;;32.67;14.77;;;1.80;99.90;;;;;;4921975;29;20052;-88
2022/01/26 19:23:26;;;;;;;32.03;14.55;;;1.80;99.90;;;;;;4936517;29;20103;-88
2022/01/26 19:26:00;;;;;;;;;;;1.80;99.90;;;;;;4941273;29;20062;-88
2022/01/26 19:28:31;;;;;;;37.28;14.85;;;1.80;99.90;;;;;;4923424;29;19923;-89
2022/01/26 19:31:55;;;;;;;34.88;14.75;;;1.90;99.90;;;;;;4924546;29;20056;-88
2022/01/26 19:45:44;;;;;;;36.30;14.70;;;1.90;99.90;;;;;;4921048;29;19923;-86
2022/01/26 19:51:06;;;;;;;52.22;21.80;;;1.90;99.90;;;;;;4818260;29;20054;-86
2022/01/26 19:53:33;;;;;;;54.30;22.20;;;1.80;99.90;;;;;;4903306;29;20187;-80
2022/01/26 19:56:00;;;;;;;41.95;18.90;;;1.90;99.90;;;;;;4926903;29;20135;-85
2022/01/26 19:58:29;;;;;;;47.03;19.80;;;1.90;99.90;;;;;;4935077;29;20494;-85
2022/01/26 20:00:56;;;;;;;40.35;17.17;;;1.90;99.90;;;;;;4927681;29;20134;-85
2022/01/26 20:03:23;;;;;;;42.03;17.63;;;1.90;99.90;;;;;;4922634;29;20131;-82
2022/01/26 20:05:53;;;;;;;35.30;15.95;;;1.90;99.90;;;;;;4924830;29;20050;-83
2022/01/26 20:08:30;;;;;;;44.42;16.67;;;1.90;99.90;;;;;;4928941;29;20056;-84
2022/01/26 20:11:01;;;;;;;37.80;15.40;;;1.90;99.90;;;;;;4923055;29;20056;-83
2022/01/26 20:13:33;;;;;;;35.83;15.85;;;1.90;99.90;;;;;;4927645;29;20100;-83
2022/01/26 20:16:01;;;;;;;35.88;15.45;;;1.90;99.90;;;;;;4924913;29;20048;-82
2022/01/26 20:18:28;;;;;;;37.30;15.23;;;1.90;99.90;;;;;;4931277;29;20139;-83
2022/01/26 20:20:59;;;;;;;39.72;15.80;;;1.90;99.90;;;;;;4926545;29;20127;-85
2022/01/26 20:23:31;;;;;;;37.83;16.08;;;1.90;99.90;;;;;;4925861;29;20059;-86
2022/01/26 20:26:01;;;;;;;35.47;15.30;;;1.80;99.90;;;;;;4929744;29;20126;-84
2022/01/26 20:28:32;;;;;;;37.95;15.68;;;1.80;99.90;;;;;;4919336;29;20442;-84
2022/01/26 20:31:03;;;;;;;39.75;15.18;;;1.90;99.90;;;;;;4929914;29;20406;-83
2022/01/26 20:33:31;;;;;;;35.67;15.40;;;1.90;99.90;;;;;;4926706;29;20050;-84
2022/01/26 20:35:59;;;;;;;40.40;15.15;;;1.90;99.90;;;;;;4927419;29;20087;-85
2022/01/26 20:38:26;;;;;;;34.85;16.27;;;1.90;99.90;;;;;;4929173;29;20048;-84
2022/01/26 20:40:54;;;;;;;35.85;15.30;;;1.90;99.90;;;;;;4937815;29;20134;-87
2022/01/26 20:43:22;;;;;;;35.55;15.40;;;1.90;99.90;;;;;;4929515;29;20498;-81
2022/01/26 20:45:50;;;;;;;36.72;15.65;;;2.00;99.90;;;;;;4936166;29;20039;-81
2022/01/26 20:48:17;;;;;;;33.28;15.05;;;1.90;99.90;;;;;;4927672;29;20078;-85
2022/01/26 20:50:45;;;;;;;37.05;15.48;;;2.00;99.90;;;;;;4930885;29;20131;-83
2022/01/26 20:53:12;;;;;;;35.88;16.40;;;2.00;99.90;;;;;;4929353;29;20052;-85
2022/01/26 20:55:39;;;;;;;36.05;15.27;;;2.00;99.90;;;;;;4926527;29;20135;-85
2022/01/26 20:58:07;;;;;;;38.92;16.48;;;1.90;99.90;;;;;;4933397;29;20507;-84
2022/01/26 21:00:34;;;;;;;39.88;16.92;;;1.90;99.90;;;;;;4925217;29;20542;-85
2022/01/26 21:03:02;;;;;;;42.00;18.05;;;1.90;99.90;;;;;;4926918;29;20579;-82
2022/01/26 21:05:30;;;;;;;45.80;19.65;;;1.80;99.90;;;;;;4930117;29;20126;-88
2022/01/26 21:07:59;;;;;;;49.63;20.83;;;1.80;99.90;;;;;;4931131;29;20083;-84
2022/01/26 21:10:27;;;;;;;44.33;19.27;;;1.80;99.90;;;;;;4919407;29;20066;-86
2022/01/26 21:12:54;;;;;;;41.92;17.00;;;1.90;99.90;;;;;;4923755;29;20051;-86
2022/01/26 21:15:23;;;;;;;41.53;17.67;;;1.90;99.90;;;;;;4924970;29;20154;-86
2022/01/26 21:17:51;;;;;;;39.75;16.65;;;1.90;99.90;;;;;;4922501;29;20044;-85
2022/01/26 21:20:21;;;;;;;32.50;14.02;;;1.80;99.90;;;;;;4923186;29;20116;-86
2022/01/26 21:22:52;;;;;;;35.20;15.05;;;1.80;99.90;;;;;;4928719;29;20047;-87
2022/01/26 21:25:21;;;;;;;35.00;15.27;;;1.80;99.90;;;;;;4921778;29;20067;-86
2022/01/26 21:27:48;;;;;;;36.03;14.88;;;1.90;99.90;;;;;;4920340;29;20163;-86
2022/01/26 21:30:15;;;;;;;33.70;15.07;;;1.90;99.90;;;;;;4927119;29;20051;-85
2022/01/26 21:32:43;;;;;;;36.42;15.50;;;1.90;99.90;;;;;;4926968;29;20076;-85
2022/01/26 21:35:11;;;;;;;37.30;15.88;;;1.90;99.90;;;;;;4926392;29;20075;-86
2022/01/26 21:37:39;;;;;;;37.85;15.80;;;2.00;99.90;;;;;;4922613;29;20131;-86
2022/01/26 21:40:08;;;;;;;36.30;14.63;;;1.90;99.90;;;;;;4930530;29;20467;-85
2022/01/26 21:42:35;;;;;;;33.08;15.18;;;1.90;99.90;;;;;;4921008;29;20048;-85
2022/01/26 21:45:03;;;;;;;35.17;15.07;;;1.80;99.90;;;;;;4918634;29;20143;-87
2022/01/26 21:47:30;;;;;;;37.65;15.95;;;1.80;99.90;;;;;;4922362;29;20130;-87
2022/01/26 21:49:57;;;;;;;31.08;14.27;;;1.70;99.90;;;;;;4937806;29;20549;-87
2022/01/26 21:52:25;;;;;;;32.55;13.88;;;1.80;99.90;;;;;;4923300;29;20143;-88
2022/01/26 21:54:53;;;;;;;36.67;14.40;;;1.70;99.90;;;;;;4918731;29;20127;-88
2022/01/26 21:57:20;;;;;;;34.70;14.35;;;1.70;99.90;;;;;;4918150;29;20091;-87
2022/01/26 21:59:48;;;;;;;34.38;14.68;;;1.80;99.90;;;;;;4918608;29;20135;-87
2022/01/26 22:02:15;;;;;;;30.77;13.85;;;1.80;99.90;;;;;;4918705;29;20565;-87
2022/01/26 22:04:44;;;;;;;31.00;14.57;;;1.90;99.90;;;;;;4918982;29;20148;-87
2022/01/26 22:07:11;;;;;;;35.53;14.88;;;1.90;99.90;;;;;;4927467;29;20146;-87
2022/01/26 22:09:38;;;;;;;33.80;14.65;;;1.90;99.90;;;;;;4929581;29;20119;-88
2022/01/26 22:12:09;;;;;;;37.28;14.77;;;1.90;99.90;;;;;;4938014;29;20139;-88
2022/01/26 22:14:36;;;;;;;33.58;14.00;;;1.90;99.90;;;;;;4912341;29;20096;-87
2022/01/26 22:17:05;;;;;;;31.75;14.20;;;1.90;99.90;;;;;;4901289;29;20052;-86
2022/01/26 22:19:32;;;;;;;33.00;14.35;;;1.90;99.90;;;;;;4921427;29;20122;-85
2022/01/26 22:21:59;;;;;;;36.00;15.38;;;1.90;99.90;;;;;;4929830;29;20139;-87
2022/01/26 22:24:26;;;;;;;34.45;15.45;;;1.90;99.90;;;;;;4926406;29;20134;-88
2022/01/26 22:26:54;;;;;;;33.33;14.73;;;1.90;99.90;;;;;;4937593;29;20094;-87
2022/01/26 22:29:24;;;;;;;32.33;14.00;;;1.80;99.90;;;;;;4934659;29;20438;-86
2022/01/26 22:31:53;;;;;;;30.98;12.93;;;1.80;99.90;;;;;;4932012;29;20047;-89
2022/01/26 22:34:20;;;;;;;31.33;13.93;;;1.80;99.90;;;;;;4936918;29;20077;-90
2022/01/26 22:36:48;;;;;;;35.63;14.82;;;1.80;99.90;;;;;;4937636;29;20146;-91
2022/01/26 22:39:16;;;;;;;31.45;14.52;;;1.80;99.90;;;;;;4937731;29;20130;-90
2022/01/26 22:41:43;;;;;;;32.00;13.55;;;1.90;99.90;;;;;;4931817;29;20138;-87